Time;durP1;ratioP1;P1;durP2;ratioP2;P2;SDS_P1;SDS_P2;PMS_P1;PMS_P2;Temp;Humidity;BMP_temperature;BMP_pressure;BME280_temperature;BME280_humidity;BME280_pressure;Samples;Min_cycle;Max_cycle;Signal;HPM_P1;HPM_P2
2023/02/09 00:01:28;;;;;;;22.42;10.93;;;;;;;;;;10405350;28;20423;-77
2023/02/09 00:06:29;;;;;;;20.75;12.85;;;;;;;;;;10404785;28;20034;-76
2023/02/09 00:16:48;;;;;;;35.70;13.38;;;;;;;;;;10395448;28;20045;-78
2023/02/09 00:21:49;;;;;;;25.50;14.43;;;;;;;;;;10372543;28;20025;-76
2023/02/09 00:26:49;;;;;;;20.77;11.05;;;;;;;;;;10387064;28;20038;-76
2023/02/09 00:31:50;;;;;;;24.75;13.18;;;;;;;;;;10386308;28;20040;-76
2023/02/09 00:36:50;;;;;;;21.48;12.38;;;;;;;;;;10402393;28;20022;-73
2023/02/09 00:42:06;;;;;;;23.95;9.95;;;;;;;;;;10385373;28;20179;-76
2023/02/09 00:47:06;;;;;;;17.00;9.48;;;;;;;;;;10374192;28;20623;-77
2023/02/09 00:52:07;;;;;;;11.70;8.07;;;;;;;;;;10400839;28;20063;-78
2023/02/09 00:57:07;;;;;;;11.30;7.10;;;;;;;;;;10387522;28;20034;-77
2023/02/09 01:02:07;;;;;;;11.83;10.27;;;;;;;;;;10386217;28;20462;-76
2023/02/09 01:07:07;;;;;;;19.95;8.95;;;;;;;;;;10386974;28;20468;-71
2023/02/09 01:12:08;;;;;;;20.03;8.70;;;;;;;;;;10386734;28;20058;-74
2023/02/09 01:17:08;;;;;;;14.07;9.60;;;;;;;;;;10375081;28;20710;-74
2023/02/09 01:22:08;;;;;;;16.77;8.87;;;;;;;;;;10349186;28;20037;-74
2023/02/09 01:27:09;;;;;;;10.93;8.97;;;;;;;;;;10429426;28;20021;-78
2023/02/09 01:32:09;;;;;;;10.77;8.95;;;;;;;;;;10385006;28;20129;-71
2023/02/09 01:37:09;;;;;;;11.13;5.57;;;;;;;;;;10384440;28;20021;-75
2023/02/09 01:42:14;;;;;;;7.03;4.85;;;;;;;;;;10384665;28;20116;-77
2023/02/09 01:47:15;;;;;;;13.18;7.88;;;;;;;;;;10384052;28;20105;-78
2023/02/09 01:52:21;;;;;;;14.57;8.02;;;;;;;;;;10384355;28;20036;-76
2023/02/09 01:57:33;;;;;;;19.02;8.45;;;;;;;;;;10384103;28;20021;-73
2023/02/09 02:02:33;;;;;;;10.65;6.63;;;;;;;;;;10384041;28;20030;-71
2023/02/09 02:07:42;;;;;;;16.23;7.25;;;;;;;;;;10381910;28;20451;-80
2023/02/09 02:12:43;;;;;;;10.70;9.57;;;;;;;;;;10401804;28;20535;-80
2023/02/09 02:17:43;;;;;;;9.82;8.77;;;;;;;;;;10382258;28;20188;-78
2023/02/09 02:22:52;;;;;;;15.55;9.00;;;;;;;;;;10380711;28;20471;-79
2023/02/09 02:28:07;;;;;;;18.90;7.80;;;;;;;;;;10397321;28;20363;-79
2023/02/09 02:33:23;;;;;;;10.70;7.60;;;;;;;;;;10382122;28;20635;-77
2023/02/09 02:38:23;;;;;;;14.75;8.05;;;;;;;;;;10381765;28;20492;-76
2023/02/09 02:43:42;;;;;;;13.00;7.45;;;;;;;;;;10381825;28;20087;-76
2023/02/09 02:48:45;;;;;;;17.10;8.30;;;;;;;;;;10399839;28;20040;-79
2023/02/09 02:53:49;;;;;;;9.57;8.52;;;;;;;;;;10381631;28;20450;-78
2023/02/09 02:58:51;;;;;;;11.52;7.25;;;;;;;;;;10381952;28;20639;-76
2023/02/09 03:03:52;;;;;;;13.35;6.32;;;;;;;;;;10381769;28;20397;-73
2023/02/09 03:08:53;;;;;;;9.43;7.55;;;;;;;;;;10386665;28;20029;-76
2023/02/09 03:13:58;;;;;;;8.05;6.28;;;;;;;;;;10389680;28;20077;-78
2023/02/09 03:18:58;;;;;;;12.18;6.00;;;;;;;;;;10389518;28;20144;-77
2023/02/09 03:24:20;;;;;;;9.65;6.80;;;;;;;;;;10388616;28;20025;-77
2023/02/09 03:29:21;;;;;;;13.65;7.55;;;;;;;;;;10389173;28;20033;-77
2023/02/09 03:34:21;;;;;;;13.05;9.15;;;;;;;;;;10388289;28;20031;-75
2023/02/09 03:39:22;;;;;;;16.38;8.75;;;;;;;;;;10373483;28;20018;-76
2023/02/09 03:44:25;;;;;;;13.37;7.80;;;;;;;;;;10387931;28;20045;-80
2023/02/09 03:49:26;;;;;;;14.73;8.40;;;;;;;;;;10387692;28;20919;-79
2023/02/09 03:54:27;;;;;;;12.32;8.82;;;;;;;;;;10389109;28;20106;-81
2023/02/09 03:59:27;;;;;;;11.27;8.80;;;;;;;;;;10388182;28;20095;-79
2023/02/09 04:04:28;;;;;;;16.67;12.13;;;;;;;;;;10404515;28;20363;-76
2023/02/09 04:09:28;;;;;;;6.68;6.07;;;;;;;;;;10388480;28;20083;-79
2023/02/09 04:14:28;;;;;;;11.32;6.53;;;;;;;;;;10388617;28;20025;-75
2023/02/09 04:19:29;;;;;;;9.13;7.35;;;;;;;;;;10401622;28;20018;-74
2023/02/09 04:24:29;;;;;;;9.18;6.00;;;;;;;;;;10380957;28;20033;-74
2023/02/09 04:29:29;;;;;;;8.23;7.45;;;;;;;;;;10390772;28;20354;-73
2023/02/09 04:34:30;;;;;;;8.43;7.45;;;;;;;;;;10367543;28;20120;-73
2023/02/09 04:39:30;;;;;;;11.23;8.13;;;;;;;;;;10380126;28;20026;-74
2023/02/09 04:44:30;;;;;;;17.08;9.60;;;;;;;;;;10386049;28;20049;-80
2023/02/09 04:49:30;;;;;;;10.80;8.68;;;;;;;;;;10387188;28;20029;-77
2023/02/09 04:54:31;;;;;;;22.33;13.63;;;;;;;;;;10386212;28;20458;-75
2023/02/09 04:59:34;;;;;;;16.38;9.48;;;;;;;;;;10387215;28;20045;-74
2023/02/09 05:04:34;;;;;;;16.15;9.23;;;;;;;;;;10395063;28;20038;-80
2023/02/09 05:09:34;;;;;;;16.48;8.32;;;;;;;;;;10384714;28;20071;-80
2023/02/09 05:14:35;;;;;;;11.95;10.82;;;;;;;;;;10380379;28;20048;-75
2023/02/09 05:19:35;;;;;;;16.05;8.82;;;;;;;;;;10402908;28;20570;-77
2023/02/09 05:24:35;;;;;;;9.05;8.18;;;;;;;;;;10403091;28;20480;-74
2023/02/09 05:29:36;;;;;;;26.55;16.38;;;;;;;;;;10383806;28;20108;-78
2023/02/09 05:34:36;;;;;;;17.92;12.38;;;;;;;;;;10384079;28;20022;-78
2023/02/09 05:39:36;;;;;;;21.35;11.23;;;;;;;;;;10394109;28;20025;-74
2023/02/09 05:44:37;;;;;;;16.15;12.05;;;;;;;;;;10392563;28;20480;-78
2023/02/09 05:49:37;;;;;;;13.40;10.10;;;;;;;;;;10388202;28;20697;-81
2023/02/09 05:54:37;;;;;;;11.00;8.90;;;;;;;;;;10399895;28;20065;-74
2023/02/09 05:59:37;;;;;;;21.65;8.95;;;;;;;;;;10400525;28;20144;-76
2023/02/09 06:04:38;;;;;;;10.65;9.25;;;;;;;;;;10393960;28;20557;-81
2023/02/09 06:09:38;;;;;;;19.40;14.33;;;;;;;;;;10383394;28;20404;-80
2023/02/09 06:14:38;;;;;;;8.10;7.30;;;;;;;;;;10382950;28;20407;-79
2023/02/09 06:19:38;;;;;;;12.85;10.43;;;;;;;;;;10373168;28;20436;-75
2023/02/09 06:24:40;;;;;;;20.90;17.38;;;;;;;;;;10383466;28;20508;-78
2023/02/09 06:29:40;;;;;;;13.82;9.95;;;;;;;;;;10381924;28;20022;-75
2023/02/09 06:34:41;;;;;;;16.80;10.75;;;;;;;;;;10382272;28;20083;-81
2023/02/09 06:39:41;;;;;;;13.40;8.35;;;;;;;;;;10382835;28;20022;-79
2023/02/09 06:44:41;;;;;;;15.27;10.40;;;;;;;;;;10382359;28;20038;-81
2023/02/09 06:49:41;;;;;;;16.25;8.95;;;;;;;;;;10382670;28;20789;-74
2023/02/09 06:54:42;;;;;;;20.05;10.70;;;;;;;;;;10382579;28;20471;-77
2023/02/09 06:59:42;;;;;;;19.02;8.27;;;;;;;;;;10400530;28;20018;-76
2023/02/09 07:04:42;;;;;;;15.98;10.52;;;;;;;;;;10383236;28;20907;-75
2023/02/09 07:09:42;;;;;;;16.63;12.38;;;;;;;;;;10382112;28;20055;-75
2023/02/09 07:14:43;;;;;;;24.83;11.85;;;;;;;;;;10382961;28;20025;-81
2023/02/09 07:19:43;;;;;;;21.35;9.55;;;;;;;;;;10383825;28;20021;-76
2023/02/09 07:24:43;;;;;;;18.70;7.05;;;;;;;;;;10399954;28;20456;-77
2023/02/09 07:29:44;;;;;;;20.73;10.60;;;;;;;;;;10382838;28;20535;-78
2023/02/09 07:34:44;;;;;;;19.17;9.45;;;;;;;;;;10381922;28;20141;-81
2023/02/09 07:39:44;;;;;;;21.25;8.80;;;;;;;;;;10403053;28;20492;-73
2023/02/09 07:44:44;;;;;;;24.40;9.60;;;;;;;;;;10381355;28;20494;-78
2023/02/09 07:49:45;;;;;;;13.18;7.68;;;;;;;;;;10382033;28;20091;-77
2023/02/09 07:54:45;;;;;;;19.15;7.05;;;;;;;;;;10385963;28;20027;-78
2023/02/09 07:59:45;;;;;;;15.55;7.05;;;;;;;;;;10405972;28;20071;-76
2023/02/09 08:04:45;;;;;;;10.68;6.03;;;;;;;;;;10387860;28;20120;-77
2023/02/09 08:09:46;;;;;;;8.93;5.50;;;;;;;;;;10388138;28;20029;-75
2023/02/09 08:14:49;;;;;;;10.82;4.88;;;;;;;;;;10407583;28;20041;-79
2023/02/09 08:20:04;;;;;;;17.13;5.50;;;;;;;;;;10388860;28;20450;-77
2023/02/09 08:25:04;;;;;;;8.20;4.63;;;;;;;;;;10388720;28;20109;-80
2023/02/09 08:30:05;;;;;;;11.63;5.18;;;;;;;;;;10387368;28;20168;-77
2023/02/09 08:35:05;;;;;;;13.40;4.93;;;;;;;;;;10387908;28;20068;-75
2023/02/09 08:40:06;;;;;;;10.43;4.90;;;;;;;;;;10388691;28;20063;-79
2023/02/09 08:45:06;;;;;;;12.35;5.85;;;;;;;;;;10395514;28;20048;-74
2023/02/09 08:50:07;;;;;;;11.00;5.22;;;;;;;;;;10404574;28;20067;-78
2023/02/09 08:55:07;;;;;;;10.25;5.40;;;;;;;;;;10401797;28;20663;-78
2023/02/09 09:00:08;;;;;;;18.90;7.40;;;;;;;;;;10405090;28;20059;-74
2023/02/09 09:05:08;;;;;;;12.40;5.68;;;;;;;;;;10387697;28;20025;-75
2023/02/09 09:10:09;;;;;;;13.73;4.80;;;;;;;;;;10387612;28;20018;-78
2023/02/09 09:15:09;;;;;;;11.38;6.18;;;;;;;;;;10386569;28;20423;-78
2023/02/09 09:20:10;;;;;;;15.20;5.82;;;;;;;;;;10386404;28;20374;-82
2023/02/09 09:25:10;;;;;;;13.02;5.53;;;;;;;;;;10386770;28;20052;-83
2023/02/09 09:30:11;;;;;;;19.80;6.77;;;;;;;;;;10370188;28;20030;-79
2023/02/09 09:35:12;;;;;;;17.27;5.80;;;;;;;;;;10402222;28;20475;-79
2023/02/09 09:40:20;;;;;;;10.77;4.97;;;;;;;;;;10369172;28;20449;-78
2023/02/09 09:45:21;;;;;;;12.63;5.63;;;;;;;;;;10385458;28;20052;-77
2023/02/09 09:50:24;;;;;;;14.45;4.32;;;;;;;;;;10402246;28;20025;-74
2023/02/09 09:55:26;;;;;;;9.52;4.03;;;;;;;;;;10368637;28;20028;-75
2023/02/09 10:00:27;;;;;;;11.45;4.38;;;;;;;;;;10360393;28;20032;-75
2023/02/09 10:05:29;;;;;;;10.32;4.18;;;;;;;;;;10378791;28;20633;-79
2023/02/09 10:10:35;;;;;;;14.65;4.47;;;;;;;;;;10384725;28;20030;-74
2023/02/09 10:15:36;;;;;;;6.03;3.95;;;;;;;;;;10368009;28;20030;-78
2023/02/09 10:20:45;;;;;;;8.10;4.40;;;;;;;;;;10383775;28;20021;-81
2023/02/09 10:25:45;;;;;;;8.55;4.60;;;;;;;;;;10384138;28;20261;-74
2023/02/09 10:30:46;;;;;;;8.68;3.67;;;;;;;;;;10402204;28;20018;-78
2023/02/09 10:35:50;;;;;;;6.55;4.43;;;;;;;;;;10384260;28;20541;-77
2023/02/09 10:40:53;;;;;;;9.68;4.20;;;;;;;;;;10383809;28;20022;-81
2023/02/09 10:45:55;;;;;;;7.45;4.03;;;;;;;;;;10382682;28;20076;-80
2023/02/09 10:50:59;;;;;;;6.78;3.83;;;;;;;;;;10383549;28;20044;-79
2023/02/09 10:56:02;;;;;;;9.75;3.90;;;;;;;;;;10383488;28;20033;-73
2023/02/09 11:01:24;;;;;;;9.70;4.47;;;;;;;;;;10401017;28;20031;-79
2023/02/09 11:06:25;;;;;;;12.77;3.90;;;;;;;;;;10400653;28;20033;-79
2023/02/09 11:11:25;;;;;;;5.82;3.45;;;;;;;;;;10382435;28;20022;-73
2023/02/09 11:16:44;;;;;;;7.50;3.42;;;;;;;;;;10382222;28;20033;-77
2023/02/09 11:21:57;;;;;;;5.80;3.53;;;;;;;;;;10399032;28;20488;-75
2023/02/09 11:27:23;;;;;;;13.27;4.60;;;;;;;;;;10382497;28;20032;-75
2023/02/09 11:32:29;;;;;;;8.77;4.13;;;;;;;;;;10404923;28;20037;-75
2023/02/09 11:37:50;;;;;;;15.23;3.97;;;;;;;;;;10389736;28;20414;-81
2023/02/09 11:43:07;;;;;;;7.18;3.42;;;;;;;;;;10383207;28;20053;-80
2023/02/09 11:48:07;;;;;;;6.35;3.42;;;;;;;;;;10406068;28;20598;-79
2023/02/09 11:53:19;;;;;;;5.85;3.60;;;;;;;;;;10388638;28;20044;-78
2023/02/09 11:58:23;;;;;;;10.18;3.70;;;;;;;;;;10389153;28;20025;-78
2023/02/09 12:03:23;;;;;;;10.00;4.22;;;;;;;;;;10388971;28;20025;-76
2023/02/09 12:08:37;;;;;;;7.38;4.03;;;;;;;;;;10387963;28;20021;-77
2023/02/09 12:13:56;;;;;;;13.10;5.30;;;;;;;;;;10386559;28;20017;-79
2023/02/09 12:18:56;;;;;;;7.35;3.85;;;;;;;;;;10391904;28;20037;-74
2023/02/09 12:23:57;;;;;;;13.50;5.32;;;;;;;;;;10390916;28;20041;-75
2023/02/09 12:29:16;;;;;;;8.10;4.15;;;;;;;;;;10394375;28;20667;-74
2023/02/09 12:34:28;;;;;;;9.40;4.72;;;;;;;;;;10402868;28;20542;-76
2023/02/09 12:39:28;;;;;;;8.82;4.93;;;;;;;;;;10384665;28;20048;-80
2023/02/09 12:44:28;;;;;;;11.13;5.80;;;;;;;;;;10383347;28;20055;-74
2023/02/09 12:49:32;;;;;;;12.27;5.05;;;;;;;;;;10391550;28;20033;-80
2023/02/09 12:54:48;;;;;;;13.80;4.68;;;;;;;;;;10383371;28;20036;-81
2023/02/09 12:59:51;;;;;;;8.40;3.97;;;;;;;;;;10389129;28;20384;-74
2023/02/09 13:05:14;;;;;;;8.02;4.80;;;;;;;;;;10383501;28;20688;-76
2023/02/09 13:10:20;;;;;;;14.07;4.72;;;;;;;;;;10377516;28;20072;-77
2023/02/09 13:15:20;;;;;;;11.68;4.85;;;;;;;;;;10383457;28;20037;-78
2023/02/09 13:20:41;;;;;;;17.52;5.13;;;;;;;;;;10387240;28;20025;-75
2023/02/09 13:25:42;;;;;;;11.00;4.82;;;;;;;;;;10395750;28;20033;-79
2023/02/09 13:30:43;;;;;;;12.18;4.72;;;;;;;;;;10399110;28;20087;-73
2023/02/09 13:36:02;;;;;;;9.88;4.53;;;;;;;;;;10394179;28;20652;-73
2023/02/09 13:41:04;;;;;;;6.78;3.95;;;;;;;;;;10401526;28;20022;-79
2023/02/09 13:46:05;;;;;;;10.38;4.60;;;;;;;;;;10402128;28;20488;-76
2023/02/09 13:51:16;;;;;;;8.23;5.32;;;;;;;;;;10401385;28;20039;-75
2023/02/09 13:56:16;;;;;;;7.60;4.70;;;;;;;;;;10384969;28;20037;-80
2023/02/09 14:01:26;;;;;;;16.57;5.00;;;;;;;;;;10402445;28;20037;-79
2023/02/09 14:06:52;;;;;;;12.02;4.53;;;;;;;;;;10383790;28;20013;-72
2023/02/09 14:11:54;;;;;;;13.55;4.05;;;;;;;;;;10340958;28;20030;-73
2023/02/09 14:17:08;;;;;;;9.07;4.80;;;;;;;;;;10379489;28;20021;-75
2023/02/09 14:22:25;;;;;;;12.85;4.90;;;;;;;;;;10393331;28;20375;-76
2023/02/09 14:27:26;;;;;;;9.48;4.15;;;;;;;;;;10383108;28;20116;-72
2023/02/09 14:32:30;;;;;;;7.93;3.63;;;;;;;;;;10382897;28;20028;-73
2023/02/09 14:37:30;;;;;;;8.48;4.13;;;;;;;;;;10382914;28;20028;-73
2023/02/09 14:42:31;;;;;;;14.83;5.90;;;;;;;;;;10382828;28;20424;-77
2023/02/09 14:47:39;;;;;;;11.35;4.65;;;;;;;;;;10383883;28;20040;-76
2023/02/09 14:52:40;;;;;;;7.82;4.93;;;;;;;;;;10379522;28;20609;-79
2023/02/09 14:57:41;;;;;;;13.77;5.68;;;;;;;;;;10380286;28;20131;-77
2023/02/09 15:02:41;;;;;;;20.10;6.88;;;;;;;;;;10381022;28;20029;-74
2023/02/09 15:07:43;;;;;;;16.85;5.40;;;;;;;;;;10382661;28;20029;-76
2023/02/09 15:12:43;;;;;;;14.10;7.10;;;;;;;;;;10400878;28;20033;-79
2023/02/09 15:17:44;;;;;;;9.77;5.93;;;;;;;;;;10374880;28;20029;-74
2023/02/09 15:22:44;;;;;;;12.95;6.53;;;;;;;;;;10371775;28;20023;-77
2023/02/09 15:27:48;;;;;;;16.38;6.72;;;;;;;;;;10383368;28;20029;-74
2023/02/09 15:32:49;;;;;;;14.40;8.20;;;;;;;;;;10385669;28;20116;-79
2023/02/09 15:37:58;;;;;;;13.05;8.40;;;;;;;;;;10391787;28;20029;-78
2023/02/09 15:48:17;;;;;;;19.50;10.10;;;;;;;;;;10404551;28;20053;-73
2023/02/09 15:53:17;;;;;;;21.55;10.02;;;;;;;;;;10388694;28;20495;-72
2023/02/09 15:58:26;;;;;;;29.07;10.90;;;;;;;;;;10396428;28;20022;-79
2023/02/09 16:03:26;;;;;;;23.10;10.15;;;;;;;;;;10381498;28;20029;-73
2023/02/09 16:08:29;;;;;;;35.15;11.60;;;;;;;;;;10405217;28;20064;-73
2023/02/09 16:13:29;;;;;;;30.40;9.95;;;;;;;;;;10388012;28;20030;-74
2023/02/09 16:18:29;;;;;;;30.30;10.90;;;;;;;;;;10394046;28;20555;-74
2023/02/09 16:23:29;;;;;;;31.00;12.45;;;;;;;;;;10369634;28;20646;-76
2023/02/09 16:28:30;;;;;;;22.40;11.73;;;;;;;;;;10381326;28;20030;-75
2023/02/09 16:33:30;;;;;;;36.42;13.07;;;;;;;;;;10386589;28;20025;-76
2023/02/09 16:38:30;;;;;;;32.90;15.32;;;;;;;;;;10391384;28;20067;-78
2023/02/09 16:43:30;;;;;;;29.23;12.98;;;;;;;;;;10384702;28;20506;-81
2023/02/09 16:48:33;;;;;;;28.88;12.32;;;;;;;;;;10387575;28;20049;-74
2023/02/09 16:53:33;;;;;;;34.75;13.95;;;;;;;;;;10381710;28;20025;-75
2023/02/09 16:58:33;;;;;;;25.77;10.98;;;;;;;;;;10384118;28;20021;-77
2023/02/09 17:03:37;;;;;;;22.20;10.23;;;;;;;;;;10395541;28;20402;-78
2023/02/09 17:08:38;;;;;;;30.42;12.13;;;;;;;;;;10402314;28;20044;-77
2023/02/09 17:13:38;;;;;;;25.77;10.82;;;;;;;;;;10377684;28;20494;-76
2023/02/09 17:18:40;;;;;;;21.38;9.80;;;;;;;;;;10383773;28;20123;-79
2023/02/09 17:23:42;;;;;;;27.30;11.80;;;;;;;;;;10378536;28;20029;-76
2023/02/09 17:28:42;;;;;;;22.42;9.88;;;;;;;;;;10384817;28;20021;-74
2023/02/09 17:33:43;;;;;;;24.48;11.23;;;;;;;;;;10378947;28;20029;-75
2023/02/09 17:38:43;;;;;;;25.58;11.80;;;;;;;;;;10386146;28;20037;-80
2023/02/09 17:43:44;;;;;;;30.30;11.10;;;;;;;;;;10378909;28;20025;-75
2023/02/09 17:48:45;;;;;;;24.95;10.60;;;;;;;;;;10398177;28;20090;-77
2023/02/09 17:53:45;;;;;;;25.77;11.18;;;;;;;;;;10395682;28;20029;-76
2023/02/09 17:58:46;;;;;;;19.40;8.40;;;;;;;;;;10382987;28;20021;-77
2023/02/09 18:03:46;;;;;;;14.70;8.40;;;;;;;;;;10391995;28;20280;-80
2023/02/09 18:08:46;;;;;;;23.55;12.80;;;;;;;;;;10380737;28;20017;-82
2023/02/09 18:13:47;;;;;;;18.92;9.68;;;;;;;;;;10386083;28;20323;-81
2023/02/09 18:18:47;;;;;;;20.42;10.02;;;;;;;;;;10374707;28;20021;-79
2023/02/09 18:23:48;;;;;;;26.92;9.40;;;;;;;;;;10370589;28;20030;-78
2023/02/09 18:28:49;;;;;;;21.25;9.90;;;;;;;;;;10368720;28;20025;-75
2023/02/09 18:33:49;;;;;;;25.95;11.77;;;;;;;;;;10367487;28;20034;-74
2023/02/09 18:38:52;;;;;;;31.42;13.63;;;;;;;;;;10368723;28;20056;-76
2023/02/09 18:43:52;;;;;;;33.00;14.32;;;;;;;;;;10383324;28;20474;-74
2023/02/09 18:48:53;;;;;;;24.90;8.60;;;;;;;;;;10376597;28;20091;-82
2023/02/09 18:53:53;;;;;;;22.80;11.82;;;;;;;;;;10383533;28;20491;-76
2023/02/09 18:58:54;;;;;;;21.08;12.07;;;;;;;;;;10393537;28;20037;-78
2023/02/09 19:03:54;;;;;;;17.33;11.23;;;;;;;;;;10398136;28;20101;-71
2023/02/09 19:08:54;;;;;;;20.27;12.07;;;;;;;;;;10387931;28;20140;-74
2023/02/09 19:19:14;;;;;;;27.30;12.68;;;;;;;;;;10405781;28;20021;-78
2023/02/09 19:24:15;;;;;;;25.70;12.50;;;;;;;;;;10363662;28;20123;-73
2023/02/09 19:29:15;;;;;;;31.67;12.02;;;;;;;;;;10377680;28;20072;-74
2023/02/09 19:34:15;;;;;;;33.90;14.20;;;;;;;;;;10358265;28;20069;-74
2023/02/09 19:39:17;;;;;;;25.77;15.63;;;;;;;;;;10373531;28;20029;-73
2023/02/09 19:44:18;;;;;;;24.75;11.35;;;;;;;;;;10380537;28;20091;-72
2023/02/09 19:49:18;;;;;;;23.03;9.97;;;;;;;;;;10373809;28;20030;-77
2023/02/09 19:54:18;;;;;;;22.80;12.07;;;;;;;;;;10375084;28;20118;-75
2023/02/09 19:59:19;;;;;;;18.90;11.13;;;;;;;;;;10367922;28;20034;-74
2023/02/09 20:04:19;;;;;;;18.13;12.07;;;;;;;;;;10385642;28;20495;-75
2023/02/09 20:09:19;;;;;;;27.98;11.45;;;;;;;;;;10383714;28;20044;-76
2023/02/09 20:14:19;;;;;;;21.05;10.15;;;;;;;;;;10386985;28;20095;-77
2023/02/09 20:19:20;;;;;;;21.80;12.43;;;;;;;;;;10387982;28;20120;-77
2023/02/09 20:24:21;;;;;;;27.05;14.35;;;;;;;;;;10368364;28;20539;-72
2023/02/09 20:29:21;;;;;;;31.27;14.40;;;;;;;;;;10407957;28;20025;-75
2023/02/09 20:34:22;;;;;;;37.50;18.43;;;;;;;;;;10386469;28;20482;-77
2023/02/09 20:39:22;;;;;;;31.23;14.10;;;;;;;;;;10404459;28;20113;-75
2023/02/09 20:49:41;;;;;;;22.63;12.45;;;;;;;;;;10391687;28;20288;-74
2023/02/09 20:54:41;;;;;;;30.90;13.75;;;;;;;;;;10387968;28;20029;-75
2023/02/09 20:59:42;;;;;;;23.30;11.48;;;;;;;;;;10380913;28;20021;-76
2023/02/09 21:04:42;;;;;;;34.40;12.33;;;;;;;;;;10385325;28;20067;-77
2023/02/09 21:09:42;;;;;;;25.58;13.20;;;;;;;;;;10384273;28;20522;-75
2023/02/09 21:14:45;;;;;;;31.70;15.40;;;;;;;;;;10401227;28;20025;-79
2023/02/09 21:19:45;;;;;;;39.83;17.67;;;;;;;;;;10385056;28;20032;-76
2023/02/09 21:24:47;;;;;;;30.80;12.43;;;;;;;;;;10384889;28;20031;-77
2023/02/09 21:29:47;;;;;;;31.42;13.25;;;;;;;;;;10387641;28;20269;-76
2023/02/09 21:34:47;;;;;;;31.17;11.75;;;;;;;;;;10382301;28;20030;-77
2023/02/09 21:39:48;;;;;;;25.57;11.60;;;;;;;;;;10384468;28;20136;-78
2023/02/09 21:44:50;;;;;;;29.45;13.65;;;;;;;;;;10383975;28;20095;-76
2023/02/09 21:49:50;;;;;;;35.75;14.20;;;;;;;;;;10383126;28;20037;-74
2023/02/09 21:54:52;;;;;;;31.73;14.60;;;;;;;;;;10401063;28;20476;-80
2023/02/09 21:59:53;;;;;;;26.15;14.82;;;;;;;;;;10382890;28;20017;-79
2023/02/09 22:04:53;;;;;;;28.23;16.13;;;;;;;;;;10400255;28;20029;-80
2023/02/09 22:09:53;;;;;;;23.67;10.43;;;;;;;;;;10382416;28;20060;-76
2023/02/09 22:14:53;;;;;;;15.43;7.63;;;;;;;;;;10381761;28;20082;-71
2023/02/09 22:19:54;;;;;;;13.68;7.93;;;;;;;;;;10400333;28;20060;-74
2023/02/09 22:24:56;;;;;;;17.85;7.15;;;;;;;;;;10383083;28;20020;-70
2023/02/09 22:29:56;;;;;;;15.80;7.93;;;;;;;;;;10386348;28;20060;-76
2023/02/09 22:34:57;;;;;;;14.98;7.40;;;;;;;;;;10398182;28;20112;-80
2023/02/09 22:39:57;;;;;;;15.85;6.82;;;;;;;;;;10399045;28;20025;-74
2023/02/09 22:44:57;;;;;;;14.00;7.25;;;;;;;;;;10399601;28;20052;-76
2023/02/09 22:49:58;;;;;;;19.05;7.75;;;;;;;;;;10381354;28;20184;-77
2023/02/09 22:54:59;;;;;;;19.15;9.85;;;;;;;;;;10400115;28;20033;-77
2023/02/09 22:59:59;;;;;;;18.52;8.07;;;;;;;;;;10409708;28;20045;-78
2023/02/09 23:04:59;;;;;;;16.42;9.00;;;;;;;;;;10381213;28;20025;-77
2023/02/09 23:09:59;;;;;;;14.05;9.48;;;;;;;;;;10381972;28;20037;-76
2023/02/09 23:15:00;;;;;;;18.77;10.02;;;;;;;;;;10378803;28;20021;-76
2023/02/09 23:20:00;;;;;;;23.38;10.00;;;;;;;;;;10380047;28;20022;-75
2023/02/09 23:25:00;;;;;;;16.90;10.82;;;;;;;;;;10403707;28;20037;-79
2023/02/09 23:30:00;;;;;;;21.55;10.50;;;;;;;;;;10430723;28;20043;-77
2023/02/09 23:35:01;;;;;;;16.38;9.85;;;;;;;;;;10388195;28;20033;-78
2023/02/09 23:40:01;;;;;;;18.50;9.20;;;;;;;;;;10395457;28;20025;-77
2023/02/09 23:45:01;;;;;;;21.00;11.25;;;;;;;;;;10405762;28;20136;-76
2023/02/09 23:50:02;;;;;;;20.58;10.02;;;;;;;;;;10398736;28;20033;-76
2023/02/09 23:55:03;;;;;;;27.88;11.23;;;;;;;;;;10389693;28;20533;-78
